createdAt,value
2018-08-27T00:00:42.165Z,100109.66
2018-08-27T00:03:17.718Z,100104.48
2018-08-27T00:05:44.699Z,100104.59
2018-08-27T00:08:12.671Z,100095.56
2018-08-27T00:10:40.124Z,100087.80
2018-08-27T00:13:07.607Z,100088.17
2018-08-27T00:15:35.588Z,100087.23
2018-08-27T00:18:09.436Z,100092.69
2018-08-27T00:20:40.158Z,100090.45
2018-08-27T00:23:07.121Z,100085.83
2018-08-27T00:25:34.112Z,100090.07
2018-08-27T00:28:01.024Z,100087.87
2018-08-27T00:30:27.967Z,100082.75
2018-08-27T00:32:58.637Z,100077.36
2018-08-27T00:35:25.580Z,100078.45
2018-08-27T00:37:52.659Z,100072.35
2018-08-27T00:40:19.603Z,100075.76
2018-08-27T00:42:46.572Z,100076.66
2018-08-27T00:45:13.594Z,100071.05
2018-08-27T00:47:40.594Z,100072.84
2018-08-27T00:50:08.561Z,100071.55
2018-08-27T00:52:35.496Z,100069.04
2018-08-27T00:55:02.512Z,100062.22
2018-08-27T00:57:29.423Z,100057.95
2018-08-27T01:00:02.499Z,100057.22
2018-08-27T01:02:29.475Z,100058.66
2018-08-27T01:04:58.153Z,100054.91
2018-08-27T01:07:32.914Z,100051.34
2018-08-27T01:10:00.700Z,100053.56
2018-08-27T01:12:28.698Z,100056.84
2018-08-27T01:14:55.811Z,100051.34
2018-08-27T01:17:22.796Z,100054.63
2018-08-27T01:19:55.083Z,100046.57
2018-08-27T01:22:22.667Z,100043.76
2018-08-27T01:24:49.777Z,100042.76
2018-08-27T01:27:17.693Z,100043.38
2018-08-27T01:29:44.676Z,100045.03
2018-08-27T01:32:17.481Z,100042.97
2018-08-27T01:34:44.410Z,100038.48
2018-08-27T01:37:12.407Z,100041.00
2018-08-27T01:39:39.361Z,100044.94
2018-08-27T01:42:07.251Z,100041.09
2018-08-27T01:44:34.251Z,100033.01
2018-08-27T01:47:01.268Z,100032.95
2018-08-27T01:49:28.232Z,100032.98
2018-08-27T01:51:56.195Z,100041.72
2018-08-27T01:54:23.755Z,100035.03
2018-08-27T01:56:50.730Z,100040.73
2018-08-27T01:59:17.640Z,100033.92
2018-08-27T02:01:47.651Z,100032.82
2018-08-27T02:04:16.226Z,100038.52
2018-08-27T02:06:49.287Z,100036.58
2018-08-27T02:09:16.267Z,100031.97
2018-08-27T02:11:44.267Z,100033.70
2018-08-27T02:14:11.215Z,100026.84
2018-08-27T02:16:39.187Z,100024.84
2018-08-27T02:19:06.169Z,100023.60
2018-08-27T02:21:33.719Z,100028.78
2018-08-27T02:24:00.700Z,100023.70
2018-08-27T02:26:27.640Z,100026.02
2018-08-27T02:28:55.639Z,100021.84
2018-08-27T02:31:22.561Z,100020.19
2018-08-27T02:33:49.623Z,100024.99
2018-08-27T02:36:17.641Z,100022.69
2018-08-27T02:38:45.279Z,100018.55
2018-08-27T02:41:12.264Z,100024.03
2018-08-27T02:43:39.180Z,100031.33
2018-08-27T02:46:09.362Z,100029.67
2018-08-27T02:48:36.293Z,100033.14
2018-08-27T02:51:03.255Z,100031.22
2018-08-27T02:53:33.700Z,100023.28
2018-08-27T02:56:01.272Z,100027.61
2018-08-27T02:58:28.219Z,100020.41
2018-08-27T03:00:57.236Z,100024.28
2018-08-27T03:03:24.192Z,100020.53
2018-08-27T03:05:51.277Z,100007.05
2018-08-27T03:08:18.299Z,100004.08
2018-08-27T03:10:55.028Z,100012.09
2018-08-27T03:13:24.095Z,100001.73
2018-08-27T03:15:54.701Z,99999.36
2018-08-27T03:18:21.743Z,99995.30
2018-08-27T03:20:48.660Z,99991.32
2018-08-27T03:23:15.615Z,99996.63
2018-08-27T03:25:42.704Z,99993.77
2018-08-27T03:28:09.607Z,100001.55
2018-08-27T03:30:37.893Z,100006.82
2018-08-27T03:33:04.892Z,100008.25
2018-08-27T03:35:31.820Z,100009.56
2018-08-27T03:37:58.924Z,100007.76
2018-08-27T03:40:25.870Z,100005.05
2018-08-27T03:42:52.792Z,100003.38
2018-08-27T03:45:20.787Z,99996.77
2018-08-27T03:47:49.295Z,99999.02
2018-08-27T03:50:17.796Z,99998.84
2018-08-27T03:52:44.768Z,99998.80
2018-08-27T03:55:11.784Z,99999.26
2018-08-27T03:57:38.764Z,100000.98
2018-08-27T04:00:05.687Z,100010.25
2018-08-27T04:02:32.675Z,100007.50
2018-08-27T04:05:05.883Z,99999.02
2018-08-27T04:07:35.900Z,99991.30
2018-08-27T04:10:06.956Z,99989.81
2018-08-27T04:12:36.963Z,99992.09
2018-08-27T04:15:04.973Z,99992.49
2018-08-27T04:17:32.815Z,99992.67
2018-08-27T04:20:01.867Z,99993.45
2018-08-27T04:22:29.844Z,99990.24
2018-08-27T04:24:58.192Z,99990.14
2018-08-27T04:27:32.540Z,99989.39
2018-08-27T04:29:59.731Z,99991.93
2018-08-27T04:32:26.677Z,99992.17
2018-08-27T04:34:57.398Z,99995.83
2018-08-27T04:37:27.352Z,100000.34
2018-08-27T04:39:54.303Z,99997.08
2018-08-27T04:42:24.348Z,99995.39
2018-08-27T04:45:01.318Z,99986.83
2018-08-27T04:47:29.325Z,99993.73
2018-08-27T04:49:56.784Z,99995.36
2018-08-27T04:52:24.348Z,99989.02
2018-08-27T04:54:51.367Z,99998.02
2018-08-27T04:57:18.378Z,100004.78
2018-08-27T04:59:51.745Z,100014.19
2018-08-27T05:02:19.354Z,100012.72
2018-08-27T05:04:46.335Z,100019.97
2018-08-27T05:07:26.851Z,100022.87
2018-08-27T05:09:58.455Z,100023.02
2018-08-27T05:12:29.512Z,100026.07
2018-08-27T05:14:57.548Z,100032.55
2018-08-27T05:17:25.080Z,100039.76
2018-08-27T05:19:52.012Z,100038.23
2018-08-27T05:22:19.888Z,100028.45
2018-08-27T05:24:55.537Z,100027.38
2018-08-27T05:27:25.452Z,100041.84
2018-08-27T05:29:52.436Z,100044.23
2018-08-27T05:32:19.403Z,100031.24
2018-08-27T05:34:56.080Z,100033.28
2018-08-27T05:37:25.920Z,100043.98
2018-08-27T05:39:52.828Z,100042.48
2018-08-27T05:42:22.780Z,100036.83
2018-08-27T05:44:49.738Z,100048.62
2018-08-27T05:47:17.729Z,100045.65
2018-08-27T05:49:44.760Z,100046.23
2018-08-27T05:52:20.499Z,100041.02
2018-08-27T05:54:52.420Z,100045.98
2018-08-27T05:57:22.444Z,100047.23
2018-08-27T05:59:54.322Z,100049.67
2018-08-27T06:02:21.863Z,100051.95
2018-08-27T06:04:49.384Z,100049.86
2018-08-27T06:07:16.328Z,100054.69
2018-08-27T06:09:43.371Z,100057.55
2018-08-27T06:12:10.212Z,100062.80
2018-08-27T06:14:37.200Z,100071.30
2018-08-27T06:17:07.226Z,100061.23
2018-08-27T06:19:34.152Z,100073.83
2018-08-27T06:22:01.261Z,100070.83
2018-08-27T06:24:28.163Z,100073.14
2018-08-27T06:26:55.156Z,100080.17
2018-08-27T06:29:22.129Z,100088.16
2018-08-27T06:31:49.024Z,100084.45
2018-08-27T06:34:17.887Z,100093.48
2018-08-27T06:36:44.835Z,100094.45
2018-08-27T06:39:13.844Z,100082.92
2018-08-27T06:41:41.291Z,100089.81
2018-08-27T06:44:08.894Z,100081.48
2018-08-27T06:46:35.841Z,100079.34
2018-08-27T06:49:02.780Z,100073.73
2018-08-27T06:51:29.776Z,100063.89
2018-08-27T06:53:57.727Z,100045.81
2018-08-27T06:56:24.706Z,100022.44
2018-08-27T06:58:51.653Z,100028.73
2018-08-27T07:01:18.606Z,100030.11
2018-08-27T07:03:48.312Z,100037.44
2018-08-27T07:06:15.280Z,100046.05
2018-08-27T07:08:48.449Z,100055.45
2018-08-27T07:11:15.346Z,100063.44
2018-08-27T07:13:42.252Z,100071.11
2018-08-27T07:16:09.879Z,100079.91
2018-08-27T07:18:37.872Z,100069.34
2018-08-27T07:21:05.385Z,100060.40
2018-08-27T07:23:32.387Z,100069.83
2018-08-27T07:25:59.353Z,100071.23
2018-08-27T07:28:26.540Z,100078.23
2018-08-27T07:30:54.365Z,100079.07
2018-08-27T07:33:21.319Z,100078.55
2018-08-27T07:35:48.307Z,100074.63
2018-08-27T07:38:15.279Z,100078.44
2018-08-27T07:40:42.171Z,100078.72
2018-08-27T07:43:10.915Z,100076.25
2018-08-27T07:45:37.917Z,100078.02
2018-08-27T07:48:04.841Z,100079.93
2018-08-27T07:50:31.924Z,100089.45
2018-08-27T07:52:58.849Z,100089.73
2018-08-27T07:55:26.423Z,100093.28
2018-08-27T07:57:53.376Z,100097.41
2018-08-27T08:00:22.243Z,100093.70
2018-08-27T08:02:49.820Z,100098.92
2018-08-27T08:05:17.695Z,100095.80
2018-08-27T08:07:48.035Z,100104.15
2018-08-27T08:10:18.981Z,100095.30
2018-08-27T08:12:54.884Z,100086.59
2018-08-27T08:15:21.811Z,100085.94
2018-08-27T08:17:49.695Z,100102.27
2018-08-27T08:20:21.304Z,100104.34
2018-08-27T08:22:48.284Z,100105.22
2018-08-27T08:25:15.212Z,100105.08
2018-08-27T08:27:42.280Z,100114.08
2018-08-27T08:30:09.231Z,100095.25
2018-08-27T08:32:43.654Z,100096.38
2018-08-27T08:35:10.612Z,100092.88
2018-08-27T08:37:37.573Z,100086.92
2018-08-27T08:40:04.739Z,100103.12
2018-08-27T08:42:31.702Z,100097.87
2018-08-27T08:44:58.629Z,100101.00
2018-08-27T08:47:25.592Z,100110.88
2018-08-27T08:49:52.583Z,100115.21
2018-08-27T08:52:19.520Z,100117.04
2018-08-27T08:54:46.512Z,100118.86
2018-08-27T08:57:19.512Z,100120.80
2018-08-27T08:59:50.429Z,100129.17
2018-08-27T09:02:23.937Z,100135.54
2018-08-27T09:04:50.887Z,100152.61
2018-08-27T09:07:17.839Z,100142.09
2018-08-27T09:09:52.168Z,100141.33
2018-08-27T09:12:23.988Z,100151.09
2018-08-27T09:14:50.928Z,100149.63
2018-08-27T09:17:17.942Z,100163.49
2018-08-27T09:19:46.856Z,100153.48
2018-08-27T09:22:13.867Z,100151.86
2018-08-27T09:24:40.878Z,100154.19
2018-08-27T09:27:08.452Z,100149.27
2018-08-27T09:29:35.421Z,100150.44
2018-08-27T09:32:02.361Z,100151.70
2018-08-27T09:34:30.955Z,100157.42
2018-08-27T09:36:57.960Z,100150.45
2018-08-27T09:39:25.917Z,100147.76
2018-08-27T09:41:52.886Z,100142.43
2018-08-27T09:44:19.828Z,100145.22
2018-08-27T09:46:46.853Z,100141.87
2018-08-27T09:49:17.571Z,100141.36
2018-08-27T09:51:44.599Z,100140.17
2018-08-27T09:54:14.511Z,100146.06
2018-08-27T09:56:41.578Z,100143.08
2018-08-27T09:59:08.591Z,100139.95
2018-08-27T10:01:37.412Z,100138.45
2018-08-27T10:04:04.996Z,100135.69
2018-08-27T10:06:32.667Z,100137.23
2018-08-27T10:09:00.666Z,100131.23
2018-08-27T10:11:27.608Z,100130.81
2018-08-27T10:13:54.660Z,100130.52
2018-08-27T10:16:21.644Z,100129.55
2018-08-27T10:18:48.603Z,100137.98
2018-08-27T10:21:16.479Z,100133.80
2018-08-27T10:23:44.459Z,100140.88
2018-08-27T10:26:14.343Z,100139.38
2018-08-27T10:28:42.048Z,100137.94
2018-08-27T10:31:09.156Z,100142.11
2018-08-27T10:33:37.092Z,100131.80
2018-08-27T10:36:04.075Z,100136.63
2018-08-27T10:38:30.982Z,100136.95
2018-08-27T10:41:04.243Z,100150.55
2018-08-27T10:43:31.489Z,100153.84
2018-08-27T10:45:58.427Z,100142.07
2018-08-27T10:48:25.368Z,100145.22
2018-08-27T10:50:52.408Z,100147.98
2018-08-27T10:53:20.020Z,100155.16
2018-08-27T10:55:46.999Z,100152.28
2018-08-27T10:58:13.927Z,100161.83
2018-08-27T11:00:41.540Z,100155.97
2018-08-27T11:03:08.473Z,100165.73
2018-08-27T11:05:36.028Z,100152.13
2018-08-27T11:08:03.014Z,100154.77
2018-08-27T11:10:29.916Z,100152.92
2018-08-27T11:12:56.922Z,100152.20
2018-08-27T11:15:23.882Z,100141.87
2018-08-27T11:17:50.786Z,100145.23
2018-08-27T11:20:17.795Z,100142.21
2018-08-27T11:22:47.703Z,100140.48
2018-08-27T11:25:17.839Z,100144.56
2018-08-27T11:27:50.940Z,100147.44
2018-08-27T11:30:17.899Z,100149.58
2018-08-27T11:32:45.587Z,100149.49
2018-08-27T11:35:12.524Z,100146.04
2018-08-27T11:37:40.512Z,100139.25
2018-08-27T11:40:09.600Z,100145.65
2018-08-27T11:42:40.767Z,100141.95
2018-08-27T11:45:08.767Z,100144.63
2018-08-27T11:47:37.142Z,100146.91
2018-08-27T11:50:05.313Z,100144.84
2018-08-27T11:52:34.244Z,100137.97
2018-08-27T11:55:02.264Z,100153.84
2018-08-27T11:57:29.275Z,100149.58
2018-08-27T12:00:00.271Z,100141.31
2018-08-27T12:02:27.399Z,100163.22
2018-08-27T12:04:55.387Z,100163.06
2018-08-27T12:07:22.323Z,100163.53
2018-08-27T12:09:49.272Z,100165.81
2018-08-27T12:12:16.240Z,100164.01
2018-08-27T12:14:44.020Z,100174.83
2018-08-27T12:17:11.002Z,100175.28
2018-08-27T12:19:37.959Z,100174.53
2018-08-27T12:24:46.186Z,100167.49
2018-08-27T12:27:13.148Z,100168.36
2018-08-27T12:29:40.095Z,100161.73
2018-08-27T12:32:07.056Z,100166.16
2018-08-27T12:34:34.026Z,100171.89
2018-08-27T12:37:00.999Z,100161.30
2018-08-27T12:39:28.909Z,100163.41
2018-08-27T12:41:55.911Z,100162.27
2018-08-27T12:44:22.876Z,100167.27
2018-08-27T12:46:50.848Z,100171.23
2018-08-27T12:49:17.868Z,100161.96
2018-08-27T12:51:45.177Z,100170.11
2018-08-27T12:54:12.179Z,100158.38
2018-08-27T12:56:40.534Z,100162.45
2018-08-27T12:59:07.709Z,100164.67
2018-08-27T13:01:34.789Z,100156.16
2018-08-27T13:04:01.817Z,100157.89
2018-08-27T13:06:28.803Z,100150.86
2018-08-27T13:08:55.731Z,100166.22
2018-08-27T13:11:26.236Z,100179.15
2018-08-27T13:13:57.250Z,100172.19
2018-08-27T13:16:24.175Z,100157.38
2018-08-27T13:18:52.057Z,100159.91
2018-08-27T13:21:24.585Z,100157.45
2018-08-27T13:23:51.584Z,100165.81
2018-08-27T13:26:18.622Z,100161.87
2018-08-27T13:28:45.660Z,100161.50
2018-08-27T13:31:12.577Z,100153.40
2018-08-27T13:33:39.828Z,100161.45
2018-08-27T13:36:06.807Z,100155.18
2018-08-27T13:38:33.919Z,100163.22
2018-08-27T13:41:00.876Z,100161.72
2018-08-27T13:43:27.881Z,100167.81
2018-08-27T13:45:54.884Z,100161.67
2018-08-27T13:48:21.855Z,100162.95
2018-08-27T13:50:48.871Z,100155.44
2018-08-27T13:53:15.849Z,100143.72
2018-08-27T13:55:43.836Z,100140.75
2018-08-27T13:58:10.779Z,100145.85
2018-08-27T14:00:41.803Z,100161.02
2018-08-27T14:03:08.912Z,100158.25
2018-08-27T14:05:35.941Z,100161.55
2018-08-27T14:08:03.707Z,100153.11
2018-08-27T14:10:32.680Z,100159.95
2018-08-27T14:13:00.640Z,100156.84
2018-08-27T14:15:29.645Z,100155.59
2018-08-27T14:17:56.556Z,100151.41
2018-08-27T14:20:23.503Z,100152.61
2018-08-27T14:22:50.467Z,100153.86
2018-08-27T14:25:17.532Z,100162.02
2018-08-27T14:27:45.817Z,100168.29
2018-08-27T14:30:13.695Z,100180.62
2018-08-27T14:32:40.766Z,100181.19
2018-08-27T14:35:09.715Z,100174.75
2018-08-27T14:37:36.732Z,100174.52
2018-08-27T14:40:03.903Z,100174.01
2018-08-27T14:42:33.263Z,100174.72
2018-08-27T14:45:00.397Z,100179.98
2018-08-27T14:47:27.365Z,100176.85
2018-08-27T14:49:54.474Z,100175.55
2018-08-27T14:52:21.428Z,100175.86
2018-08-27T14:54:48.379Z,100175.27
2018-08-27T14:57:15.380Z,100185.14
2018-08-27T14:59:42.305Z,100184.69
2018-08-27T15:02:09.258Z,100182.19
2018-08-27T15:04:36.224Z,100181.47
2018-08-27T15:07:03.191Z,100178.88
2018-08-27T15:09:30.193Z,100185.94
2018-08-27T15:11:57.079Z,100189.09
2018-08-27T15:14:24.047Z,100190.11
2018-08-27T15:16:51.042Z,100193.86
2018-08-27T15:19:17.948Z,100202.25
2018-08-27T15:21:44.935Z,100202.17
2018-08-27T15:24:11.876Z,100208.42
2018-08-27T15:26:38.836Z,100211.73
2018-08-27T15:29:05.899Z,100210.51
2018-08-27T15:31:32.869Z,100205.64
2018-08-27T15:33:59.818Z,100206.25
2018-08-27T15:36:26.776Z,100200.59
2018-08-27T15:38:53.801Z,100200.67
2018-08-27T15:41:20.701Z,100199.87
2018-08-27T15:43:47.657Z,100203.47
2018-08-27T15:46:20.356Z,100211.34
2018-08-27T15:48:47.363Z,100200.83
2018-08-27T15:51:14.275Z,100196.70
2018-08-27T15:53:42.248Z,100197.58
2018-08-27T15:56:09.210Z,100204.05
2018-08-27T15:58:36.151Z,100208.28
2018-08-27T16:01:03.117Z,100207.73
2018-08-27T16:03:30.066Z,100199.56
2018-08-27T16:05:57.180Z,100198.77
2018-08-27T16:08:24.011Z,100198.12
2018-08-27T16:10:50.945Z,100206.99
2018-08-27T16:13:18.925Z,100208.25
2018-08-27T16:15:47.667Z,100207.31
2018-08-27T16:18:15.201Z,100200.00
2018-08-27T16:20:42.192Z,100195.47
2018-08-27T16:23:09.291Z,100205.88
2018-08-27T16:25:36.164Z,100207.79
2018-08-27T16:28:03.104Z,100212.35
2018-08-27T16:30:30.071Z,100228.94
2018-08-27T16:32:57.035Z,100219.98
2018-08-27T16:35:24.320Z,100224.38
2018-08-27T16:37:53.183Z,100229.57
2018-08-27T16:40:20.359Z,100226.27
2018-08-27T16:42:47.314Z,100231.17
2018-08-27T16:45:14.343Z,100227.73
2018-08-27T16:47:43.395Z,100220.41
2018-08-27T16:50:15.245Z,100215.69
2018-08-27T16:52:42.281Z,100210.19
2018-08-27T16:55:12.664Z,100209.80
2018-08-27T16:57:41.255Z,100208.14
2018-08-27T17:00:09.672Z,100216.23
2018-08-27T17:02:36.624Z,100224.63
2018-08-27T17:05:03.559Z,100231.09
2018-08-27T17:07:30.487Z,100232.81
2018-08-27T17:09:59.263Z,100242.74
2018-08-27T17:12:26.181Z,100237.90
2018-08-27T17:14:53.137Z,100242.78
2018-08-27T17:17:20.093Z,100249.25
2018-08-27T17:19:48.105Z,100254.41
2018-08-27T17:22:15.011Z,100253.74
2018-08-27T17:24:42.825Z,100254.80
2018-08-27T17:27:09.770Z,100259.36
2018-08-27T17:29:36.809Z,100253.98
2018-08-27T17:32:03.783Z,100256.78
2018-08-27T17:34:30.884Z,100266.12
2018-08-27T17:36:58.598Z,100264.59
2018-08-27T17:39:25.899Z,100265.69
2018-08-27T17:41:52.926Z,100263.84
2018-08-27T17:44:19.960Z,100268.40
2018-08-27T17:46:46.962Z,100266.27
2018-08-27T17:49:13.960Z,100276.87
2018-08-27T17:51:40.967Z,100276.35
2018-08-27T17:54:07.914Z,100268.48
2018-08-27T17:56:34.852Z,100271.20
2018-08-27T17:59:01.735Z,100278.48
2018-08-27T18:01:28.711Z,100278.19
2018-08-27T18:03:55.618Z,100286.12
2018-08-27T18:06:25.587Z,100280.94
2018-08-27T18:08:52.531Z,100276.68
2018-08-27T18:11:19.511Z,100277.08
2018-08-27T18:13:46.423Z,100277.89
2018-08-27T18:16:14.425Z,100279.69
2018-08-27T18:18:41.403Z,100286.42
2018-08-27T18:21:08.351Z,100286.58
2018-08-27T18:23:35.395Z,100294.41
2018-08-27T18:26:02.347Z,100295.55
2018-08-27T18:28:30.451Z,100302.13
2018-08-27T18:30:57.431Z,100306.92
2018-08-27T18:33:28.529Z,100308.30
2018-08-27T18:35:56.365Z,100308.98
2018-08-27T18:38:24.309Z,100307.28
2018-08-27T18:40:51.319Z,100304.48
2018-08-27T18:43:18.375Z,100302.86
2018-08-27T18:45:45.292Z,100300.95
2018-08-27T18:48:12.760Z,100307.39
2018-08-27T18:50:39.696Z,100310.38
2018-08-27T18:53:06.716Z,100311.40
2018-08-27T18:55:33.677Z,100318.34
2018-08-27T18:58:00.648Z,100314.04
2018-08-27T19:00:27.668Z,100319.89
2018-08-27T19:02:54.634Z,100323.38
2018-08-27T19:05:21.633Z,100320.34
2018-08-27T19:07:48.535Z,100328.97
2018-08-27T19:10:15.505Z,100334.80
2018-08-27T19:12:42.466Z,100340.08
2018-08-27T19:15:09.417Z,100331.70
2018-08-27T19:17:36.366Z,100341.55
2018-08-27T19:20:03.367Z,100343.37
2018-08-27T19:22:30.407Z,100346.31
2018-08-27T19:24:57.312Z,100355.86
2018-08-27T19:27:24.776Z,100355.55
2018-08-27T19:29:52.552Z,100358.91
2018-08-27T19:32:19.560Z,100353.09
2018-08-27T19:34:46.645Z,100362.26
2018-08-27T19:37:14.651Z,100353.92
2018-08-27T19:39:42.343Z,100357.38
2018-08-27T19:42:09.491Z,100357.39
2018-08-27T19:44:36.436Z,100344.70
2018-08-27T19:47:03.447Z,100355.98
2018-08-27T19:49:30.383Z,100358.00
2018-08-27T19:51:58.304Z,100360.94
2018-08-27T19:54:25.191Z,100367.05
2018-08-27T19:56:52.176Z,100364.49
2018-08-27T19:59:19.131Z,100373.16
2018-08-27T20:01:46.091Z,100366.75
2018-08-27T20:04:13.110Z,100368.16
2018-08-27T20:06:45.911Z,100370.40
2018-08-27T20:09:14.863Z,100374.47
2018-08-27T20:11:47.983Z,100372.51
2018-08-27T20:14:14.916Z,100382.27
2018-08-27T20:16:42.047Z,100387.66
2018-08-27T20:19:08.832Z,100386.04
2018-08-27T20:21:35.830Z,100393.22
2018-08-27T20:24:06.660Z,100390.70
2018-08-27T20:26:39.615Z,100392.02
2018-08-27T20:29:12.669Z,100389.77
2018-08-27T20:31:40.976Z,100391.00
2018-08-27T20:34:08.900Z,100394.16
2018-08-27T20:36:35.963Z,100402.16
2018-08-27T20:39:03.018Z,100395.91
2018-08-27T20:41:35.121Z,100404.52
2018-08-27T20:44:06.251Z,100404.47
2018-08-27T20:46:33.212Z,100412.01
2018-08-27T20:49:00.288Z,100407.71
2018-08-27T20:51:27.238Z,100407.64
2018-08-27T20:53:54.187Z,100405.58
2018-08-27T20:56:21.155Z,100406.63
2018-08-27T20:58:48.099Z,100407.55
2018-08-27T21:01:15.071Z,100410.63
2018-08-27T21:03:43.054Z,100421.20
2018-08-27T21:06:11.024Z,100420.98
2018-08-27T21:08:37.990Z,100422.00
2018-08-27T21:11:05.055Z,100427.61
2018-08-27T21:13:32.067Z,100426.27
2018-08-27T21:15:59.078Z,100434.31
2018-08-27T21:18:26.040Z,100439.83
2018-08-27T21:20:54.935Z,100440.19
2018-08-27T21:23:22.398Z,100438.56
2018-08-27T21:25:49.484Z,100444.26
2018-08-27T21:28:16.392Z,100443.63
2018-08-27T21:30:44.915Z,100445.06
2018-08-27T21:33:17.901Z,100443.34
2018-08-27T21:35:44.978Z,100441.70
2018-08-27T21:38:11.914Z,100445.38
2018-08-27T21:40:38.889Z,100438.53
2018-08-27T21:43:11.943Z,100442.16
2018-08-27T21:45:39.996Z,100446.83
2018-08-27T21:48:07.935Z,100442.87
2018-08-27T21:50:34.996Z,100442.31
2018-08-27T21:53:01.992Z,100446.91
2018-08-27T21:55:28.924Z,100454.58
2018-08-27T21:57:56.375Z,100459.07
2018-08-27T22:00:27.241Z,100463.48
2018-08-27T22:03:02.059Z,100464.83
2018-08-27T22:05:29.954Z,100467.80
2018-08-27T22:07:57.926Z,100471.05
2018-08-27T22:10:40.563Z,100479.87
2018-08-27T22:13:07.544Z,100482.31
2018-08-27T22:15:34.495Z,100479.73
2018-08-27T22:18:09.931Z,100476.92
2018-08-27T22:20:43.148Z,100482.43
2018-08-27T22:23:10.130Z,100484.05
2018-08-27T22:25:37.448Z,100489.38
2018-08-27T22:28:04.395Z,100487.72
2018-08-27T22:30:31.386Z,100491.02
2018-08-27T22:32:59.384Z,100495.84
2018-08-27T22:35:29.417Z,100491.35
2018-08-27T22:37:56.357Z,100487.87
2018-08-27T22:40:32.119Z,100494.91
2018-08-27T22:43:05.307Z,100506.38
2018-08-27T22:45:33.287Z,100496.00
2018-08-27T22:48:06.305Z,100499.94
2018-08-27T22:50:33.265Z,100494.18
2018-08-27T22:53:00.226Z,100500.04
2018-08-27T22:55:27.163Z,100503.75
2018-08-27T22:57:54.954Z,100513.05
2018-08-27T23:00:26.264Z,100521.23
2018-08-27T23:03:00.873Z,100521.26
2018-08-27T23:05:27.811Z,100518.48
2018-08-27T23:07:54.751Z,100523.30
2018-08-27T23:10:22.488Z,100527.23
2018-08-27T23:12:49.496Z,100526.36
2018-08-27T23:15:24.190Z,100519.59
2018-08-27T23:17:51.202Z,100513.06
2018-08-27T23:20:19.155Z,100515.16
2018-08-27T23:22:46.988Z,100511.81
2018-08-27T23:25:25.615Z,100515.03
2018-08-27T23:27:53.511Z,100515.20
2018-08-27T23:30:21.528Z,100520.62
2018-08-27T23:32:48.519Z,100521.34
2018-08-27T23:35:15.440Z,100519.88
2018-08-27T23:37:42.351Z,100519.15
2018-08-27T23:40:09.336Z,100525.33
2018-08-27T23:42:37.015Z,100522.91
2018-08-27T23:45:04.501Z,100521.28
2018-08-27T23:47:32.511Z,100518.33
2018-08-27T23:49:59.447Z,100522.20
2018-08-27T23:52:26.415Z,100523.28
2018-08-27T23:54:53.366Z,100522.36
2018-08-27T23:57:20.335Z,100519.88
2018-08-27T23:59:47.279Z,100521.67
